createdAt,value
2018-12-16T00:01:52.830Z,10.10
2018-12-16T00:04:24.329Z,9.47
2018-12-16T00:06:55.819Z,10.63
2018-12-16T00:09:27.332Z,9.93
2018-12-16T00:11:58.965Z,7.83
2018-12-16T00:14:30.534Z,8.73
2018-12-16T00:17:02.078Z,10.27
2018-12-16T00:19:33.626Z,8.87
2018-12-16T00:22:05.366Z,9.27
2018-12-16T00:24:36.947Z,7.93
2018-12-16T00:27:13.856Z,8.93
2018-12-16T00:29:45.276Z,9.57
2018-12-16T00:32:16.895Z,9.30
2018-12-16T00:34:48.400Z,8.77
2018-12-16T00:37:20.004Z,9.77
2018-12-16T00:39:51.500Z,9.40
2018-12-16T00:42:23.066Z,7.60
2018-12-16T00:44:54.508Z,8.40
2018-12-16T00:47:26.033Z,8.90
2018-12-16T00:49:57.520Z,9.23
2018-12-16T00:52:29.121Z,8.80
2018-12-16T00:55:00.614Z,9.40
2018-12-16T00:57:32.344Z,9.47
2018-12-16T01:00:06.007Z,10.33
2018-12-16T01:02:43.225Z,10.13
2018-12-16T01:05:15.319Z,9.37
2018-12-16T01:07:46.801Z,9.53
2018-12-16T01:10:18.499Z,8.80
2018-12-16T01:12:50.009Z,8.97
2018-12-16T01:15:21.561Z,9.00
2018-12-16T01:17:53.017Z,8.87
2018-12-16T01:20:24.616Z,10.13
2018-12-16T01:22:56.116Z,9.83
2018-12-16T01:25:27.716Z,8.13
2018-12-16T01:27:59.222Z,9.57
2018-12-16T01:30:30.836Z,10.50
2018-12-16T01:33:02.336Z,9.23
2018-12-16T01:35:33.878Z,9.10
2018-12-16T01:38:05.336Z,10.77
2018-12-16T01:40:36.931Z,9.73
2018-12-16T01:43:08.449Z,9.80
2018-12-16T01:45:40.043Z,10.30
2018-12-16T01:48:11.560Z,9.97
2018-12-16T01:50:43.143Z,8.43
2018-12-16T01:53:14.689Z,9.00
2018-12-16T01:55:46.359Z,10.00
2018-12-16T01:58:17.859Z,8.67
2018-12-16T02:00:49.468Z,9.23
2018-12-16T02:03:20.985Z,7.70
2018-12-16T02:05:52.581Z,9.63
2018-12-16T02:08:24.199Z,10.13
2018-12-16T02:10:55.832Z,9.27
2018-12-16T02:13:27.257Z,10.03
2018-12-16T02:15:59.044Z,10.07
2018-12-16T02:18:30.656Z,9.13
2018-12-16T02:21:02.161Z,10.30
2018-12-16T02:23:33.718Z,9.83
2018-12-16T02:26:05.168Z,9.03
2018-12-16T02:28:36.770Z,9.70
2018-12-16T02:31:08.277Z,9.50
2018-12-16T02:33:39.890Z,9.60
2018-12-16T02:36:11.382Z,10.87
2018-12-16T02:38:42.991Z,10.27
2018-12-16T02:41:14.484Z,9.53
2018-12-16T02:43:46.659Z,10.20
2018-12-16T02:46:18.258Z,9.07
2018-12-16T02:48:49.769Z,9.67
2018-12-16T02:51:21.366Z,8.90
2018-12-16T02:53:52.872Z,8.37
2018-12-16T02:56:24.474Z,8.47
2018-12-16T02:58:55.978Z,8.87
2018-12-16T03:01:27.628Z,8.87
2018-12-16T03:03:59.044Z,8.27
2018-12-16T03:06:30.634Z,8.40
2018-12-16T03:09:02.048Z,10.07
2018-12-16T03:11:33.641Z,9.63
2018-12-16T03:14:05.252Z,8.87
2018-12-16T03:16:36.775Z,9.10
2018-12-16T03:19:08.364Z,9.03
2018-12-16T03:21:39.871Z,9.10
2018-12-16T03:24:11.484Z,8.73
2018-12-16T03:26:42.970Z,9.73
2018-12-16T03:29:14.573Z,9.63
2018-12-16T03:31:46.082Z,8.77
2018-12-16T03:34:17.617Z,9.53
2018-12-16T03:36:49.086Z,9.37
2018-12-16T03:39:20.505Z,9.13
2018-12-16T03:41:51.989Z,9.63
2018-12-16T03:44:23.592Z,8.23
2018-12-16T03:46:55.089Z,9.50
2018-12-16T03:49:26.697Z,9.27
2018-12-16T03:51:58.277Z,8.87
2018-12-16T03:54:29.854Z,8.90
2018-12-16T03:57:01.353Z,9.20
2018-12-16T03:59:32.864Z,9.40
2018-12-16T04:02:04.293Z,9.47
2018-12-16T04:04:35.861Z,9.57
2018-12-16T04:07:07.298Z,9.40
2018-12-16T04:09:38.955Z,8.37
2018-12-16T04:12:12.537Z,8.93
2018-12-16T04:14:44.038Z,8.73
2018-12-16T04:17:15.431Z,9.20
2018-12-16T04:19:47.031Z,9.50
2018-12-16T04:22:18.634Z,9.50
2018-12-16T04:24:50.145Z,8.97
2018-12-16T04:27:21.744Z,9.20
2018-12-16T04:29:53.289Z,9.13
2018-12-16T04:32:24.896Z,7.70
2018-12-16T04:34:56.352Z,9.83
2018-12-16T04:37:27.895Z,8.87
2018-12-16T04:39:59.363Z,9.23
2018-12-16T04:42:30.909Z,8.77
2018-12-16T04:45:02.375Z,9.00
2018-12-16T04:47:33.969Z,9.33
2018-12-16T04:50:06.015Z,8.67
2018-12-16T04:52:37.630Z,9.07
2018-12-16T04:55:09.116Z,10.20
2018-12-16T04:57:40.837Z,9.10
2018-12-16T05:00:12.549Z,9.40
2018-12-16T05:02:44.162Z,9.17
2018-12-16T05:05:15.583Z,8.30
2018-12-16T05:07:47.917Z,9.00
2018-12-16T05:10:30.533Z,9.30
2018-12-16T05:13:02.153Z,8.53
2018-12-16T05:15:33.590Z,8.87
2018-12-16T05:18:05.358Z,9.33
2018-12-16T05:20:36.872Z,8.83
2018-12-16T05:23:08.496Z,9.83
2018-12-16T05:25:39.875Z,8.40
2018-12-16T05:28:11.480Z,8.37
2018-12-16T05:30:43.085Z,8.90
2018-12-16T05:33:14.584Z,8.57
2018-12-16T05:35:46.125Z,9.40
2018-12-16T05:38:17.556Z,8.87
2018-12-16T05:40:49.130Z,9.50
2018-12-16T05:43:20.689Z,9.50
2018-12-16T05:45:52.236Z,8.93
2018-12-16T05:48:23.664Z,10.03
2018-12-16T05:50:55.249Z,9.33
2018-12-16T05:53:26.869Z,9.83
2018-12-16T05:55:58.372Z,9.13
2018-12-16T05:58:29.879Z,8.63
2018-12-16T06:01:01.496Z,8.23
2018-12-16T06:03:33.084Z,10.10
2018-12-16T06:06:04.607Z,9.37
2018-12-16T06:08:36.185Z,8.87
2018-12-16T06:11:07.697Z,9.80
2018-12-16T06:13:39.302Z,10.07
2018-12-16T06:16:10.809Z,8.83
2018-12-16T06:18:42.407Z,8.13
2018-12-16T06:21:13.868Z,9.77
2018-12-16T06:23:45.544Z,9.10
2018-12-16T06:26:16.978Z,8.57
2018-12-16T06:28:48.658Z,9.07
2018-12-16T06:31:20.092Z,8.47
2018-12-16T06:33:51.658Z,10.03
2018-12-16T06:36:23.085Z,9.00
2018-12-16T06:38:54.670Z,9.33
2018-12-16T06:41:26.279Z,9.90
2018-12-16T06:43:57.785Z,9.90
2018-12-16T06:46:29.440Z,10.13
2018-12-16T06:49:00.856Z,9.00
2018-12-16T06:51:32.444Z,9.97
2018-12-16T06:54:04.062Z,9.70
2018-12-16T06:56:35.561Z,9.60
2018-12-16T06:59:07.159Z,9.17
2018-12-16T07:01:38.667Z,9.33
2018-12-16T07:04:10.266Z,8.73
2018-12-16T07:06:41.839Z,9.83
2018-12-16T07:09:13.525Z,9.67
2018-12-16T07:11:45.041Z,10.93
2018-12-16T07:14:16.641Z,10.73
2018-12-16T07:16:48.053Z,10.03
2018-12-16T07:19:19.652Z,10.17
2018-12-16T07:21:51.135Z,9.27
2018-12-16T07:24:22.778Z,10.00
2018-12-16T07:26:54.400Z,9.77
2018-12-16T07:29:25.949Z,9.50
2018-12-16T07:31:57.416Z,9.67
2018-12-16T07:34:28.978Z,10.10
2018-12-16T07:37:00.360Z,9.97
2018-12-16T07:39:31.974Z,9.70
2018-12-16T07:42:03.581Z,11.67
2018-12-16T07:44:35.086Z,10.50
2018-12-16T07:47:06.571Z,10.10
2018-12-16T07:49:38.185Z,11.13
2018-12-16T07:52:09.796Z,9.57
2018-12-16T07:54:41.297Z,10.53
2018-12-16T07:57:12.908Z,9.53
2018-12-16T07:59:44.767Z,9.10
2018-12-16T08:02:16.361Z,9.53
2018-12-16T08:04:48.760Z,9.77
2018-12-16T08:07:20.164Z,9.00
2018-12-16T08:09:51.746Z,10.13
2018-12-16T08:12:23.355Z,10.23
2018-12-16T08:14:54.861Z,9.80
2018-12-16T08:17:26.317Z,9.43
2018-12-16T08:19:57.765Z,11.07
2018-12-16T08:22:29.171Z,10.07
2018-12-16T08:25:00.777Z,10.57
2018-12-16T08:27:32.165Z,10.27
2018-12-16T08:30:03.770Z,9.90
2018-12-16T08:32:35.379Z,10.43
2018-12-16T08:35:07.416Z,10.03
2018-12-16T08:37:39.023Z,9.47
2018-12-16T08:40:10.992Z,9.13
2018-12-16T08:42:42.414Z,8.70
2018-12-16T08:45:14.111Z,8.90
2018-12-16T08:47:45.715Z,9.07
2018-12-16T08:50:17.219Z,9.50
2018-12-16T08:52:48.766Z,9.53
2018-12-16T08:55:20.216Z,8.67
2018-12-16T08:57:51.769Z,8.40
2018-12-16T09:00:23.243Z,8.27
2018-12-16T09:02:54.833Z,9.27
2018-12-16T09:05:26.151Z,10.60
2018-12-16T09:07:57.561Z,9.70
2018-12-16T09:10:34.130Z,9.03
2018-12-16T09:13:02.734Z,9.83
2018-12-16T09:15:34.205Z,9.30
2018-12-16T09:18:05.642Z,10.10
2018-12-16T09:20:37.730Z,13.43
2018-12-16T09:23:22.531Z,11.17
2018-12-16T09:26:18.052Z,10.43
2018-12-16T09:29:02.737Z,10.53
2018-12-16T09:31:53.234Z,9.53
2018-12-16T09:34:32.822Z,11.17
2018-12-16T09:37:11.555Z,10.90
2018-12-16T09:39:53.494Z,10.07
2018-12-16T09:42:34.852Z,10.23
2018-12-16T09:45:16.308Z,11.30
2018-12-16T09:47:52.662Z,10.27
2018-12-16T09:50:29.828Z,11.37
2018-12-16T09:53:07.493Z,10.73
2018-12-16T09:55:43.987Z,11.13
2018-12-16T09:58:18.935Z,10.63
2018-12-16T10:01:01.894Z,10.27
2018-12-16T10:03:38.773Z,11.07
2018-12-16T10:06:17.498Z,11.30
2018-12-16T10:08:51.502Z,11.30
2018-12-16T10:11:25.870Z,11.77
2018-12-16T10:13:59.210Z,11.27
2018-12-16T10:16:33.203Z,11.73
2018-12-16T10:19:06.736Z,13.33
2018-12-16T10:21:39.476Z,10.50
2018-12-16T10:24:11.315Z,11.87
2018-12-16T10:26:43.121Z,12.93
2018-12-16T10:29:14.508Z,11.67
2018-12-16T10:31:45.971Z,12.90
2018-12-16T10:34:17.616Z,12.13
2018-12-16T10:36:49.603Z,12.33
2018-12-16T10:39:21.167Z,12.13
2018-12-16T10:41:52.573Z,13.63
2018-12-16T10:44:24.164Z,14.20
2018-12-16T10:46:56.719Z,12.80
2018-12-16T10:49:29.429Z,13.90
2018-12-16T10:52:00.876Z,13.80
2018-12-16T10:54:32.306Z,13.63
2018-12-16T10:57:03.795Z,13.33
2018-12-16T10:59:35.208Z,13.40
2018-12-16T11:02:06.801Z,12.73
2018-12-16T11:04:38.067Z,14.07
2018-12-16T11:07:10.232Z,13.03
2018-12-16T11:09:41.592Z,13.23
2018-12-16T11:12:13.221Z,14.27
2018-12-16T11:14:44.960Z,14.73
2018-12-16T11:17:19.620Z,13.70
2018-12-16T11:19:55.260Z,11.97
2018-12-16T11:22:28.187Z,13.33
2018-12-16T11:25:05.635Z,13.73
2018-12-16T11:27:35.841Z,14.03
2018-12-16T11:30:16.280Z,14.17
2018-12-16T11:32:48.487Z,14.60
2018-12-16T11:35:20.033Z,12.87
2018-12-16T11:37:51.514Z,14.47
2018-12-16T11:40:31.200Z,15.00
2018-12-16T11:43:10.150Z,14.03
2018-12-16T11:45:44.798Z,13.83
2018-12-16T11:48:19.322Z,12.80
2018-12-16T11:50:53.935Z,13.83
2018-12-16T11:53:25.761Z,13.60
2018-12-16T11:55:57.676Z,13.87
2018-12-16T11:58:29.502Z,13.53
2018-12-16T12:01:01.325Z,13.37
2018-12-16T12:03:33.021Z,14.37
2018-12-16T12:06:05.412Z,13.27
2018-12-16T12:08:37.084Z,14.03
2018-12-16T12:11:08.657Z,14.47
2018-12-16T12:13:40.180Z,14.00
2018-12-16T12:16:11.829Z,14.43
2018-12-16T12:18:43.272Z,14.50
2018-12-16T12:21:16.124Z,16.33
2018-12-16T12:23:48.136Z,13.70
2018-12-16T12:26:21.888Z,13.07
2018-12-16T12:28:53.449Z,13.70
2018-12-16T12:31:26.703Z,13.53
2018-12-16T12:34:04.341Z,14.97
2018-12-16T12:36:40.371Z,13.30
2018-12-16T12:39:12.517Z,13.27
2018-12-16T12:41:52.588Z,14.30
2018-12-16T12:44:24.641Z,13.00
2018-12-16T12:46:56.168Z,14.70
2018-12-16T12:49:27.819Z,15.43
2018-12-16T12:51:59.500Z,12.83
2018-12-16T12:54:30.905Z,13.53
2018-12-16T12:57:02.204Z,14.17
2018-12-16T12:59:33.832Z,12.97
2018-12-16T13:02:05.224Z,13.07
2018-12-16T13:04:36.647Z,13.80
2018-12-16T13:07:08.419Z,12.57
2018-12-16T13:09:40.047Z,13.30
2018-12-16T13:12:11.794Z,12.27
2018-12-16T13:14:43.444Z,13.30
2018-12-16T13:17:15.038Z,13.53
2018-12-16T13:19:46.635Z,12.70
2018-12-16T13:22:18.143Z,12.83
2018-12-16T13:25:06.059Z,13.93
2018-12-16T13:27:37.806Z,13.73
2018-12-16T13:30:09.811Z,12.23
2018-12-16T13:32:41.249Z,12.40
2018-12-16T13:35:13.446Z,12.57
2018-12-16T13:37:44.832Z,11.90
2018-12-16T13:40:16.534Z,12.00
2018-12-16T13:42:48.522Z,12.17
2018-12-16T13:45:21.077Z,13.73
2018-12-16T13:47:52.676Z,12.77
2018-12-16T13:50:24.184Z,11.83
2018-12-16T13:52:55.805Z,13.10
2018-12-16T13:55:28.649Z,13.80
2018-12-16T13:58:00.499Z,12.07
2018-12-16T14:00:31.938Z,13.00
2018-12-16T14:03:03.221Z,13.47
2018-12-16T14:05:34.836Z,14.97
2018-12-16T14:08:09.132Z,13.20
2018-12-16T14:10:41.126Z,13.27
2018-12-16T14:13:12.772Z,12.40
2018-12-16T14:15:44.180Z,12.53
2018-12-16T14:18:15.873Z,12.67
2018-12-16T14:20:47.286Z,10.50
2018-12-16T14:23:19.401Z,12.67
2018-12-16T14:25:52.357Z,10.70
2018-12-16T14:28:24.169Z,11.87
2018-12-16T14:30:56.746Z,12.57
2018-12-16T14:33:39.545Z,12.97
2018-12-16T14:36:11.612Z,11.43
2018-12-16T14:38:43.469Z,14.07
2018-12-16T14:41:15.228Z,11.60
2018-12-16T14:43:46.977Z,9.60
2018-12-16T14:46:18.734Z,13.03
2018-12-16T14:48:50.616Z,10.43
2018-12-16T14:51:22.380Z,12.70
2018-12-16T14:53:54.355Z,13.73
2018-12-16T14:56:26.332Z,14.07
2018-12-16T14:58:57.841Z,14.03
2018-12-16T15:01:29.923Z,11.17
2018-12-16T15:04:01.952Z,13.80
2018-12-16T15:06:33.737Z,10.80
2018-12-16T15:09:09.709Z,11.33
2018-12-16T15:11:41.910Z,11.10
2018-12-16T15:14:14.140Z,10.20
2018-12-16T15:16:47.072Z,12.73
2018-12-16T15:19:18.677Z,11.53
2018-12-16T15:21:50.759Z,10.33
2018-12-16T15:24:22.224Z,10.47
2018-12-16T15:26:53.823Z,12.97
2018-12-16T15:29:25.249Z,12.40
2018-12-16T15:31:56.832Z,12.40
2018-12-16T15:34:28.385Z,14.20
2018-12-16T15:36:59.930Z,12.70
2018-12-16T15:39:31.448Z,13.37
2018-12-16T15:42:03.051Z,19.20
2018-12-16T15:44:34.656Z,15.40
2018-12-16T15:47:06.256Z,13.37
2018-12-16T15:49:37.872Z,14.97
2018-12-16T15:52:09.480Z,17.13
2018-12-16T15:54:41.026Z,19.03
2018-12-16T15:57:12.458Z,14.50
2018-12-16T15:59:44.227Z,14.57
2018-12-16T16:02:15.720Z,16.47
2018-12-16T16:04:47.403Z,16.47
2018-12-16T16:07:18.917Z,16.97
2018-12-16T16:09:50.513Z,13.70
2018-12-16T16:12:22.016Z,14.97
2018-12-16T16:14:53.617Z,14.87
2018-12-16T16:17:25.132Z,14.47
2018-12-16T16:19:56.774Z,15.40
2018-12-16T16:22:28.237Z,13.43
2018-12-16T16:24:59.764Z,15.03
2018-12-16T16:27:31.247Z,15.17
2018-12-16T16:30:02.846Z,14.87
2018-12-16T16:32:34.340Z,14.57
2018-12-16T16:35:06.433Z,14.97
2018-12-16T16:37:38.083Z,15.03
2018-12-16T16:40:09.831Z,14.93
2018-12-16T16:42:41.369Z,14.73
2018-12-16T16:45:12.837Z,12.70
2018-12-16T16:47:44.368Z,13.83
2018-12-16T16:50:15.837Z,14.07
2018-12-16T16:52:47.443Z,14.53
2018-12-16T16:55:18.945Z,14.23
2018-12-16T16:57:50.499Z,14.87
2018-12-16T17:00:22.062Z,15.13
2018-12-16T17:02:53.691Z,15.13
2018-12-16T17:14:05.630Z,16.17
2018-12-16T17:16:37.157Z,16.00
2018-12-16T17:19:09.142Z,14.83
2018-12-16T17:21:41.804Z,15.13
2018-12-16T17:24:13.308Z,14.83
2018-12-16T17:26:45.015Z,15.10
2018-12-16T17:29:16.526Z,15.37
2018-12-16T17:31:48.132Z,15.70
2018-12-16T17:34:20.051Z,12.67
2018-12-16T17:36:51.583Z,14.27
2018-12-16T17:39:22.996Z,12.60
2018-12-16T17:41:54.598Z,14.40
2018-12-16T17:44:26.107Z,12.40
2018-12-16T17:46:57.614Z,14.47
2018-12-16T17:49:29.219Z,15.40
2018-12-16T17:52:00.714Z,14.73
2018-12-16T17:54:32.108Z,13.83
2018-12-16T17:57:03.712Z,12.70
2018-12-16T17:59:35.072Z,14.60
2018-12-16T18:02:07.050Z,14.57
2018-12-16T18:04:38.736Z,15.33
2018-12-16T18:07:10.245Z,13.33
2018-12-16T18:09:41.847Z,16.67
2018-12-16T18:12:13.408Z,14.90
2018-12-16T18:14:45.058Z,16.87
2018-12-16T18:17:16.558Z,14.83
2018-12-16T18:19:48.097Z,12.73
2018-12-16T18:22:19.622Z,17.43
2018-12-16T18:24:51.207Z,16.73
2018-12-16T18:27:22.640Z,13.03
2018-12-16T18:32:36.311Z,12.13
2018-12-16T18:35:07.996Z,11.57
2018-12-16T18:37:39.896Z,10.00
2018-12-16T18:40:11.358Z,12.03
2018-12-16T18:42:42.872Z,10.77
2018-12-16T18:45:14.264Z,10.43
2018-12-16T18:47:45.747Z,15.40
2018-12-16T18:50:17.289Z,16.10
2018-12-16T18:52:48.759Z,14.77
2018-12-16T18:55:20.302Z,15.87
2018-12-16T18:57:51.760Z,17.13
2018-12-16T19:00:23.512Z,15.93
2018-12-16T19:02:54.872Z,17.43
2018-12-16T19:05:26.504Z,16.50
2018-12-16T19:07:57.932Z,16.43
2018-12-16T19:10:29.519Z,17.07
2018-12-16T19:13:00.876Z,17.17
2018-12-16T19:15:32.436Z,16.90
2018-12-16T19:18:03.847Z,15.90
2018-12-16T19:20:35.436Z,17.33
2018-12-16T19:23:07.441Z,16.30
2018-12-16T19:25:38.933Z,16.87
2018-12-16T19:28:10.223Z,18.17
2018-12-16T19:30:41.668Z,18.37
2018-12-16T19:33:13.055Z,15.30
2018-12-16T19:35:48.740Z,13.83
2018-12-16T19:38:24.718Z,10.37
2018-12-16T19:41:03.309Z,9.70
2018-12-16T19:43:37.996Z,10.27
2018-12-16T19:46:09.619Z,12.83
2018-12-16T19:48:41.152Z,11.67
2018-12-16T19:51:12.805Z,13.43
2018-12-16T19:53:44.360Z,11.90
2018-12-16T19:56:15.920Z,14.37
2018-12-16T19:58:47.673Z,10.40
2018-12-16T20:01:19.165Z,12.50
2018-12-16T20:03:55.381Z,14.50
2018-12-16T20:06:31.824Z,14.20
2018-12-16T20:09:04.129Z,16.73
2018-12-16T20:11:35.686Z,13.23
2018-12-16T20:14:07.339Z,14.43
2018-12-16T20:16:38.980Z,15.60
2018-12-16T20:19:10.477Z,14.90
2018-12-16T20:21:42.003Z,13.67
2018-12-16T20:24:13.555Z,13.90
2018-12-16T20:26:45.177Z,14.43
2018-12-16T20:29:16.681Z,13.17
2018-12-16T20:31:48.201Z,14.73
2018-12-16T20:34:19.691Z,14.67
2018-12-16T20:36:51.319Z,9.50
2018-12-16T20:39:22.896Z,12.57
2018-12-16T20:41:54.495Z,11.70
2018-12-16T20:44:26.107Z,11.07
2018-12-16T20:46:57.510Z,13.40
2018-12-16T20:49:29.223Z,13.87
2018-12-16T20:52:00.704Z,11.83
2018-12-16T20:54:32.353Z,13.30
2018-12-16T20:57:03.780Z,11.50
2018-12-16T20:59:35.381Z,12.10
2018-12-16T21:02:06.978Z,11.30
2018-12-16T21:04:38.379Z,9.73
2018-12-16T21:07:09.969Z,12.10
2018-12-16T21:09:41.386Z,10.70
2018-12-16T21:12:17.852Z,12.43
2018-12-16T21:14:54.464Z,12.00
2018-12-16T21:17:30.684Z,14.43
2018-12-16T21:20:02.197Z,15.97
2018-12-16T21:22:33.811Z,16.33
2018-12-16T21:25:05.841Z,18.67
2018-12-16T21:27:37.351Z,16.30
2018-12-16T21:30:09.293Z,15.60
2018-12-16T21:32:40.780Z,11.43
2018-12-16T21:35:12.432Z,12.37
2018-12-16T21:37:43.897Z,12.13
2018-12-16T21:40:15.298Z,11.10
2018-12-16T21:42:46.879Z,13.07
2018-12-16T21:45:18.434Z,13.50
2018-12-16T21:47:49.988Z,15.80
2018-12-16T21:50:21.544Z,10.17
2018-12-16T21:52:53.098Z,11.43
2018-12-16T21:55:24.531Z,12.30
2018-12-16T21:57:56.101Z,16.60
2018-12-16T22:00:27.533Z,10.60
2018-12-16T22:02:59.121Z,13.47
2018-12-16T22:05:34.237Z,14.60
2018-12-16T22:08:05.852Z,9.63
2018-12-16T22:10:37.455Z,9.53
2018-12-16T22:13:08.875Z,10.87
2018-12-16T22:15:40.465Z,12.60
2018-12-16T22:18:12.072Z,14.20
2018-12-16T22:20:43.584Z,15.67
2018-12-16T22:23:15.185Z,11.73
2018-12-16T22:25:46.682Z,13.87
2018-12-16T22:28:18.233Z,18.00
2018-12-16T22:30:49.695Z,13.40
2018-12-16T22:33:21.333Z,11.70
2018-12-16T22:35:52.812Z,11.00
2018-12-16T22:38:24.215Z,11.80
2018-12-16T22:40:55.790Z,14.20
2018-12-16T22:43:27.211Z,13.20
2018-12-16T22:45:58.804Z,16.97
2018-12-16T22:48:30.417Z,12.67
2018-12-16T22:51:01.914Z,12.80
2018-12-16T22:53:33.528Z,11.40
2018-12-16T22:56:05.055Z,14.80
2018-12-16T22:58:36.432Z,14.87
2018-12-16T23:01:13.413Z,15.27
2018-12-16T23:03:44.929Z,15.60
2018-12-16T23:06:16.326Z,13.40
2018-12-16T23:08:47.902Z,10.57
2018-12-16T23:11:19.563Z,13.50
2018-12-16T23:13:51.121Z,12.10
2018-12-16T23:16:22.667Z,12.93
2018-12-16T23:18:54.389Z,12.00
2018-12-16T23:21:26.828Z,10.27
2018-12-16T23:23:58.320Z,9.00
2018-12-16T23:26:29.817Z,14.87
2018-12-16T23:29:01.400Z,12.63
2018-12-16T23:31:32.929Z,14.17
2018-12-16T23:34:04.476Z,14.50
2018-12-16T23:36:35.926Z,9.83
2018-12-16T23:39:08.308Z,14.43
2018-12-16T23:41:39.855Z,13.70
2018-12-16T23:44:11.313Z,16.23
2018-12-16T23:46:42.926Z,11.30
2018-12-16T23:49:14.418Z,10.10
2018-12-16T23:51:46.001Z,11.80
2018-12-16T23:54:17.425Z,10.67
2018-12-16T23:56:49.136Z,15.20
2018-12-16T23:59:20.740Z,13.40
